createdAt,value
2017-12-22T00:00:27.557Z,3.13
2017-12-22T00:02:54.074Z,2.63
2017-12-22T00:05:20.290Z,3.00
2017-12-22T00:07:47.759Z,2.57
2017-12-22T00:10:13.987Z,2.80
2017-12-22T00:12:40.173Z,2.83
2017-12-22T00:15:06.466Z,2.80
2017-12-22T00:17:32.701Z,3.37
2017-12-22T00:19:58.926Z,3.43
2017-12-22T00:22:29.057Z,3.00
2017-12-22T00:24:55.378Z,4.17
2017-12-22T00:27:21.585Z,2.77
2017-12-22T00:29:48.221Z,3.30
2017-12-22T00:32:14.434Z,2.50
2017-12-22T00:34:40.980Z,3.37
2017-12-22T00:37:07.226Z,2.50
2017-12-22T00:39:33.444Z,2.73
2017-12-22T00:41:59.686Z,2.70
2017-12-22T00:44:26.301Z,2.30
2017-12-22T00:46:52.636Z,2.40
2017-12-22T00:49:18.822Z,3.07
2017-12-22T00:51:45.134Z,2.70
2017-12-22T00:54:11.352Z,3.37
2017-12-22T00:56:37.530Z,2.80
2017-12-22T00:59:03.774Z,2.77
2017-12-22T01:01:30.303Z,3.40
2017-12-22T01:03:56.572Z,2.50
2017-12-22T01:06:23.244Z,2.63
2017-12-22T01:08:49.417Z,2.70
2017-12-22T01:11:15.622Z,3.10
2017-12-22T01:13:42.202Z,2.73
2017-12-22T01:16:14.527Z,3.37
2017-12-22T01:18:46.971Z,2.60
2017-12-22T01:21:13.151Z,2.30
2017-12-22T01:23:39.373Z,2.50
2017-12-22T01:26:05.642Z,2.93
2017-12-22T01:28:31.908Z,3.43
2017-12-22T01:30:58.156Z,2.90
2017-12-22T01:33:24.460Z,2.40
2017-12-22T01:35:50.665Z,3.10
2017-12-22T01:38:16.882Z,2.53
2017-12-22T01:40:43.144Z,2.47
2017-12-22T01:43:09.708Z,2.60
2017-12-22T01:45:35.940Z,3.00
2017-12-22T01:48:02.307Z,2.70
2017-12-22T01:50:28.525Z,2.37
2017-12-22T01:52:54.751Z,2.87
2017-12-22T01:55:21.058Z,2.50
2017-12-22T01:57:47.282Z,2.67
2017-12-22T02:00:13.505Z,2.50
2017-12-22T02:02:40.314Z,2.30
2017-12-22T02:05:06.589Z,3.53
2017-12-22T02:07:32.826Z,2.80
2017-12-22T02:09:59.440Z,3.13
2017-12-22T02:12:25.653Z,2.83
2017-12-22T02:14:51.920Z,2.20
2017-12-22T02:17:18.214Z,2.80
2017-12-22T02:19:44.452Z,2.30
2017-12-22T02:22:10.657Z,2.50
2017-12-22T02:24:36.890Z,2.17
2017-12-22T02:27:03.069Z,2.20
2017-12-22T02:29:29.578Z,2.00
2017-12-22T02:31:55.871Z,2.40
2017-12-22T02:34:22.103Z,2.77
2017-12-22T02:36:48.526Z,2.43
2017-12-22T02:39:14.847Z,2.33
2017-12-22T02:41:41.070Z,2.30
2017-12-22T02:44:07.315Z,2.47
2017-12-22T02:46:33.708Z,2.30
2017-12-22T02:48:59.931Z,2.13
2017-12-22T02:51:26.174Z,2.60
2017-12-22T02:53:52.510Z,2.27
2017-12-22T02:56:18.742Z,2.70
2017-12-22T02:58:44.966Z,2.20
2017-12-22T03:01:11.562Z,2.43
2017-12-22T03:03:37.749Z,2.33
2017-12-22T03:06:10.087Z,2.60
2017-12-22T03:08:36.350Z,2.40
2017-12-22T03:11:02.593Z,2.00
2017-12-22T03:13:29.153Z,2.20
2017-12-22T03:15:55.415Z,2.10
2017-12-22T03:18:21.672Z,2.30
2017-12-22T03:20:48.248Z,2.03
2017-12-22T03:23:14.790Z,1.57
2017-12-22T03:25:41.037Z,2.57
2017-12-22T03:28:07.266Z,2.73
2017-12-22T03:30:33.553Z,2.47
2017-12-22T03:33:00.099Z,2.50
2017-12-22T03:35:26.353Z,2.23
2017-12-22T03:37:52.551Z,1.80
2017-12-22T03:40:19.098Z,2.30
2017-12-22T03:42:45.365Z,2.10
2017-12-22T03:45:11.564Z,2.20
2017-12-22T03:47:37.788Z,1.90
2017-12-22T03:50:04.115Z,2.60
2017-12-22T03:52:30.510Z,2.37
2017-12-22T03:54:56.751Z,2.50
2017-12-22T03:57:23.063Z,2.43
2017-12-22T03:59:49.301Z,2.27
2017-12-22T04:02:15.493Z,2.13
2017-12-22T04:04:41.991Z,2.27
2017-12-22T04:07:08.268Z,2.30
2017-12-22T04:09:34.450Z,2.30
2017-12-22T04:12:00.637Z,2.47
2017-12-22T04:14:27.281Z,2.30
2017-12-22T04:16:53.533Z,2.20
2017-12-22T04:19:19.847Z,2.37
2017-12-22T04:21:46.449Z,2.37
2017-12-22T04:24:12.633Z,2.00
2017-12-22T04:26:38.825Z,1.97
2017-12-22T04:29:05.047Z,1.80
2017-12-22T04:31:31.227Z,2.27
2017-12-22T04:33:57.754Z,2.10
2017-12-22T04:36:24.011Z,1.93
2017-12-22T04:38:50.237Z,2.43
2017-12-22T04:41:16.846Z,2.27
2017-12-22T04:43:43.074Z,1.90
2017-12-22T04:46:09.333Z,2.17
2017-12-22T04:48:36.046Z,2.70
2017-12-22T04:51:02.303Z,2.20
2017-12-22T04:53:28.554Z,1.90
2017-12-22T04:55:54.847Z,1.90
2017-12-22T04:58:21.046Z,2.30
2017-12-22T05:00:47.230Z,1.87
2017-12-22T05:03:13.663Z,2.00
2017-12-22T05:05:40.263Z,2.00
2017-12-22T05:08:06.458Z,2.40
2017-12-22T05:10:32.735Z,1.80
2017-12-22T05:12:59.018Z,2.03
2017-12-22T05:15:25.223Z,2.40
2017-12-22T05:17:51.523Z,2.13
2017-12-22T05:20:17.766Z,2.20
2017-12-22T05:22:43.965Z,1.93
2017-12-22T05:25:10.258Z,1.60
2017-12-22T05:27:36.441Z,2.07
2017-12-22T05:30:02.680Z,2.47
2017-12-22T05:32:29.272Z,2.30
2017-12-22T05:34:55.815Z,1.90
2017-12-22T05:37:22.068Z,2.07
2017-12-22T05:39:48.685Z,2.10
2017-12-22T05:42:14.863Z,1.90
2017-12-22T05:44:41.062Z,1.90
2017-12-22T05:47:07.662Z,2.30
2017-12-22T05:49:33.857Z,1.87
2017-12-22T05:52:00.155Z,2.00
2017-12-22T05:54:26.795Z,2.40
2017-12-22T05:56:53.226Z,2.03
2017-12-22T05:59:19.616Z,1.50
2017-12-22T06:01:46.157Z,1.70
2017-12-22T06:04:12.378Z,1.50
2017-12-22T06:06:38.581Z,2.20
2017-12-22T06:09:04.914Z,1.90
2017-12-22T06:11:31.148Z,1.43
2017-12-22T06:13:57.715Z,1.83
2017-12-22T06:16:24.279Z,1.63
2017-12-22T06:18:50.737Z,2.23
2017-12-22T06:21:16.931Z,1.80
2017-12-22T06:23:43.208Z,1.80
2017-12-22T06:26:09.410Z,1.83
2017-12-22T06:28:35.902Z,2.20
2017-12-22T06:31:02.194Z,1.43
2017-12-22T06:33:28.434Z,1.83
2017-12-22T06:35:54.869Z,1.70
2017-12-22T06:38:21.181Z,1.83
2017-12-22T06:40:47.389Z,1.60
2017-12-22T06:43:13.625Z,1.50
2017-12-22T06:45:39.927Z,1.40
2017-12-22T06:48:06.163Z,1.83
2017-12-22T06:50:32.374Z,1.40
2017-12-22T06:52:59.235Z,1.60
2017-12-22T06:55:25.751Z,2.13
2017-12-22T06:57:51.967Z,1.90
2017-12-22T07:00:18.214Z,2.03
2017-12-22T07:02:44.463Z,1.70
2017-12-22T07:05:10.688Z,1.77
2017-12-22T07:07:36.933Z,1.67
2017-12-22T07:10:03.602Z,1.50
2017-12-22T07:12:29.811Z,1.90
2017-12-22T07:14:56.031Z,2.00
2017-12-22T07:17:22.323Z,1.63
2017-12-22T07:19:48.524Z,1.30
2017-12-22T07:22:14.791Z,2.40
2017-12-22T07:24:41.081Z,2.00
2017-12-22T07:27:07.312Z,1.47
2017-12-22T07:29:33.854Z,1.93
2017-12-22T07:32:00.091Z,1.80
2017-12-22T07:34:26.387Z,1.70
2017-12-22T07:36:52.614Z,1.70
2017-12-22T07:39:19.293Z,1.97
2017-12-22T07:41:45.554Z,1.80
2017-12-22T07:44:11.778Z,1.80
2017-12-22T07:46:38.034Z,2.17
2017-12-22T07:49:04.255Z,2.17
2017-12-22T07:51:30.721Z,1.87
2017-12-22T07:53:56.985Z,1.70
2017-12-22T07:56:23.256Z,1.73
2017-12-22T07:58:49.530Z,1.90
2017-12-22T08:01:15.846Z,1.90
2017-12-22T08:03:42.091Z,1.90
2017-12-22T08:06:08.317Z,1.73
2017-12-22T08:08:34.562Z,2.20
2017-12-22T08:11:00.788Z,1.63
2017-12-22T08:13:26.998Z,1.90
2017-12-22T08:15:53.236Z,2.30
2017-12-22T08:18:19.746Z,2.20
2017-12-22T08:20:45.978Z,1.90
2017-12-22T08:23:12.558Z,2.10
2017-12-22T08:25:38.731Z,2.37
2017-12-22T08:28:05.275Z,1.63
2017-12-22T08:30:32.098Z,2.07
2017-12-22T08:32:58.308Z,2.43
2017-12-22T08:35:24.749Z,2.00
2017-12-22T08:37:51.390Z,2.30
2017-12-22T08:40:18.591Z,2.27
2017-12-22T08:42:44.807Z,2.17
2017-12-22T08:45:11.374Z,2.13
2017-12-22T08:47:37.604Z,1.97
2017-12-22T08:50:04.100Z,1.90
2017-12-22T08:52:30.411Z,1.90
2017-12-22T08:54:56.625Z,2.00
2017-12-22T08:57:22.866Z,2.10
2017-12-22T08:59:49.824Z,2.03
2017-12-22T09:02:16.066Z,2.13
2017-12-22T09:04:42.281Z,1.97
2017-12-22T09:07:08.565Z,1.80
2017-12-22T09:09:34.785Z,2.13
2017-12-22T09:12:01.039Z,2.10
2017-12-22T09:14:27.336Z,2.00
2017-12-22T09:16:53.587Z,1.60
2017-12-22T09:19:19.752Z,1.97
2017-12-22T09:21:46.025Z,2.53
2017-12-22T09:24:12.232Z,2.07
2017-12-22T09:26:38.450Z,2.07
2017-12-22T09:29:05.142Z,1.80
2017-12-22T09:31:31.641Z,2.13
2017-12-22T09:33:57.836Z,2.07
2017-12-22T09:36:24.065Z,2.17
2017-12-22T09:38:50.273Z,2.20
2017-12-22T09:41:16.506Z,2.33
2017-12-22T09:43:42.733Z,2.83
2017-12-22T09:46:08.981Z,1.70
2017-12-22T09:48:35.214Z,2.10
2017-12-22T09:51:01.529Z,2.37
2017-12-22T09:53:27.836Z,2.13
2017-12-22T09:55:54.109Z,2.00
2017-12-22T09:58:20.430Z,2.00
2017-12-22T10:00:46.623Z,2.07
2017-12-22T10:03:12.863Z,1.90
2017-12-22T10:05:39.409Z,2.10
2017-12-22T10:08:05.660Z,1.90
2017-12-22T10:10:32.100Z,1.90
2017-12-22T10:12:58.562Z,2.00
2017-12-22T10:15:24.770Z,1.83
2017-12-22T10:17:51.010Z,1.70
2017-12-22T10:20:18.030Z,1.93
2017-12-22T10:22:44.269Z,2.00
2017-12-22T10:25:10.788Z,1.73
2017-12-22T10:27:37.049Z,1.90
2017-12-22T10:30:03.655Z,1.57
2017-12-22T10:32:29.874Z,1.90
2017-12-22T10:34:56.520Z,1.93
2017-12-22T10:37:22.709Z,2.07
2017-12-22T10:39:48.980Z,1.90
2017-12-22T10:42:15.221Z,1.80
2017-12-22T10:44:41.731Z,1.73
2017-12-22T10:47:07.979Z,1.90
2017-12-22T10:49:34.190Z,2.10
2017-12-22T10:52:00.429Z,1.83
2017-12-22T10:54:26.707Z,1.77
2017-12-22T10:56:53.228Z,1.90
2017-12-22T10:59:19.453Z,2.47
2017-12-22T11:01:45.718Z,1.80
2017-12-22T11:04:11.992Z,1.70
2017-12-22T11:06:38.279Z,1.80
2017-12-22T11:09:04.952Z,1.60
2017-12-22T11:11:31.170Z,1.77
2017-12-22T11:13:57.389Z,1.60
2017-12-22T11:16:23.974Z,1.60
2017-12-22T11:18:50.188Z,2.00
2017-12-22T11:21:16.414Z,1.80
2017-12-22T11:23:43.136Z,1.80
2017-12-22T11:26:09.402Z,1.90
2017-12-22T11:28:35.996Z,1.73
2017-12-22T11:31:02.286Z,1.50
2017-12-22T11:33:28.496Z,1.90
2017-12-22T11:35:54.714Z,2.40
2017-12-22T11:38:21.319Z,1.47
2017-12-22T11:40:47.563Z,1.60
2017-12-22T11:43:13.746Z,1.93
2017-12-22T11:45:40.016Z,1.50
2017-12-22T11:48:06.241Z,1.63
2017-12-22T11:50:32.483Z,1.70
2017-12-22T11:52:59.191Z,1.60
2017-12-22T11:55:25.482Z,1.70
2017-12-22T11:57:51.706Z,1.63
2017-12-22T12:00:18.002Z,1.40
2017-12-22T12:02:44.252Z,1.67
2017-12-22T12:05:10.430Z,1.90
2017-12-22T12:07:36.675Z,2.00
2017-12-22T12:10:02.904Z,2.20
2017-12-22T12:12:29.193Z,1.90
2017-12-22T12:14:55.476Z,1.43
2017-12-22T12:17:21.747Z,1.73
2017-12-22T12:19:47.960Z,1.63
2017-12-22T12:22:14.573Z,1.57
2017-12-22T12:24:40.768Z,2.07
2017-12-22T12:27:07.866Z,2.07
2017-12-22T12:29:34.532Z,1.87
2017-12-22T12:32:00.788Z,2.03
2017-12-22T12:34:27.026Z,1.93
2017-12-22T12:36:53.299Z,1.70
2017-12-22T12:39:19.498Z,1.90
2017-12-22T12:41:45.716Z,1.63
2017-12-22T12:44:12.453Z,1.80
2017-12-22T12:46:38.732Z,1.80
2017-12-22T12:49:04.924Z,1.67
2017-12-22T12:51:31.187Z,1.83
2017-12-22T12:53:58.016Z,1.70
2017-12-22T12:56:24.256Z,1.60
2017-12-22T12:58:50.587Z,1.60
2017-12-22T13:01:16.797Z,1.70
2017-12-22T13:03:43.046Z,1.67
2017-12-22T13:06:09.281Z,1.43
2017-12-22T13:08:35.590Z,1.90
2017-12-22T13:11:01.935Z,1.80
2017-12-22T13:13:28.186Z,2.00
2017-12-22T13:15:54.751Z,1.70
2017-12-22T13:18:20.966Z,1.63
2017-12-22T13:20:47.222Z,1.90
2017-12-22T13:23:13.828Z,1.93
2017-12-22T13:25:40.062Z,1.50
2017-12-22T13:28:06.679Z,1.43
2017-12-22T13:30:32.942Z,1.90
2017-12-22T13:32:59.133Z,1.70
2017-12-22T13:35:25.800Z,1.50
2017-12-22T13:37:52.012Z,1.70
2017-12-22T13:40:18.247Z,2.00
2017-12-22T13:42:44.824Z,1.70
2017-12-22T13:45:11.033Z,1.50
2017-12-22T13:47:37.664Z,1.50
2017-12-22T13:50:03.867Z,1.60
2017-12-22T13:52:30.127Z,2.10
2017-12-22T13:54:56.460Z,1.73
2017-12-22T13:57:22.691Z,1.50
2017-12-22T13:59:48.897Z,1.57
2017-12-22T14:02:15.139Z,1.90
2017-12-22T14:04:41.382Z,1.40
2017-12-22T14:07:07.604Z,1.80
2017-12-22T14:09:34.222Z,1.97
2017-12-22T14:12:00.459Z,1.67
2017-12-22T14:14:26.632Z,1.40
2017-12-22T14:16:52.893Z,1.63
2017-12-22T14:19:19.110Z,1.93
2017-12-22T14:21:45.349Z,1.33
2017-12-22T14:24:11.942Z,1.63
2017-12-22T14:26:38.195Z,1.40
2017-12-22T14:29:04.407Z,2.20
2017-12-22T14:31:30.682Z,1.50
2017-12-22T14:36:28.879Z,1.90
2017-12-22T14:38:55.446Z,1.40
2017-12-22T14:41:21.637Z,1.77
2017-12-22T14:43:47.878Z,1.47
2017-12-22T14:46:14.151Z,1.17
2017-12-22T14:48:40.434Z,1.53
2017-12-22T14:51:06.620Z,1.80
2017-12-22T14:53:32.939Z,1.70
2017-12-22T14:55:59.124Z,1.50
2017-12-22T14:58:25.324Z,1.57
2017-12-22T15:00:51.929Z,1.60
2017-12-22T15:03:18.184Z,1.47
2017-12-22T15:05:44.399Z,1.80
2017-12-22T15:08:10.972Z,1.50
2017-12-22T15:10:37.224Z,1.43
2017-12-22T15:13:03.498Z,1.80
2017-12-22T15:15:29.740Z,1.90
2017-12-22T15:17:55.977Z,1.70
2017-12-22T15:20:22.236Z,1.27
2017-12-22T15:22:48.916Z,1.67
2017-12-22T15:25:15.134Z,1.37
2017-12-22T15:27:41.717Z,1.67
2017-12-22T15:30:08.548Z,1.40
2017-12-22T15:32:35.092Z,1.30
2017-12-22T15:35:01.339Z,1.40
2017-12-22T15:37:28.061Z,1.80
2017-12-22T15:39:54.278Z,1.40
2017-12-22T15:42:20.827Z,1.63
2017-12-22T15:44:47.425Z,1.60
2017-12-22T15:47:13.642Z,1.37
2017-12-22T15:49:39.857Z,1.80
2017-12-22T15:52:06.156Z,1.33
2017-12-22T15:54:32.688Z,1.50
2017-12-22T15:56:58.960Z,1.63
2017-12-22T15:59:25.271Z,1.53
2017-12-22T16:01:51.486Z,1.50
2017-12-22T16:04:18.137Z,1.30
2017-12-22T16:06:44.364Z,1.70
2017-12-22T16:09:10.862Z,2.00
2017-12-22T16:11:37.159Z,1.37
2017-12-22T16:14:03.475Z,1.40
2017-12-22T16:16:29.698Z,1.50
2017-12-22T16:18:55.958Z,1.60
2017-12-22T16:21:22.201Z,1.40
2017-12-22T16:23:48.454Z,1.47
2017-12-22T16:26:14.722Z,1.40
2017-12-22T16:28:40.961Z,1.43
2017-12-22T16:31:07.153Z,1.57
2017-12-22T16:33:33.448Z,1.70
2017-12-22T16:35:59.671Z,1.60
2017-12-22T16:38:25.912Z,1.63
2017-12-22T16:40:52.197Z,1.30
2017-12-22T16:43:18.674Z,1.50
2017-12-22T16:45:44.923Z,1.57
2017-12-22T16:48:11.247Z,1.43
2017-12-22T16:50:37.508Z,1.40
2017-12-22T16:53:03.698Z,1.80
2017-12-22T16:55:30.019Z,1.60
2017-12-22T16:57:56.276Z,1.50
2017-12-22T17:00:22.531Z,1.37
2017-12-22T17:02:48.818Z,1.40
2017-12-22T17:05:15.079Z,1.60
2017-12-22T17:07:41.680Z,1.90
2017-12-22T17:10:08.336Z,1.43
2017-12-22T17:12:34.530Z,1.43
2017-12-22T17:15:00.729Z,1.50
2017-12-22T17:17:26.961Z,1.50
2017-12-22T17:19:53.423Z,1.43
2017-12-22T17:22:19.669Z,1.43
2017-12-22T17:24:45.926Z,1.70
2017-12-22T17:27:12.165Z,1.57
2017-12-22T17:29:38.414Z,1.60
2017-12-22T17:32:05.037Z,1.50
2017-12-22T17:34:31.624Z,1.20
2017-12-22T17:36:57.836Z,1.57
2017-12-22T17:39:24.110Z,1.50
2017-12-22T17:41:50.317Z,1.47
2017-12-22T17:44:16.576Z,1.80
2017-12-22T17:46:42.812Z,1.57
2017-12-22T17:49:08.994Z,1.40
2017-12-22T17:51:35.411Z,1.50
2017-12-22T17:54:01.645Z,1.47
2017-12-22T17:56:27.838Z,1.13
2017-12-22T17:58:54.055Z,2.07
2017-12-22T18:01:20.870Z,1.70
2017-12-22T18:03:47.365Z,1.30
2017-12-22T18:06:13.603Z,1.50
2017-12-22T18:08:40.174Z,1.63
2017-12-22T18:11:06.464Z,2.10
2017-12-22T18:13:32.723Z,1.10
2017-12-22T18:15:59.005Z,1.73
2017-12-22T18:18:25.207Z,2.07
2017-12-22T18:20:51.648Z,1.63
2017-12-22T18:23:17.922Z,1.50
2017-12-22T18:25:44.341Z,1.77
2017-12-22T18:28:10.580Z,1.50
2017-12-22T18:30:36.844Z,1.60
2017-12-22T18:33:03.097Z,1.30
2017-12-22T18:35:29.342Z,1.33
2017-12-22T18:37:55.971Z,1.47
2017-12-22T18:40:22.164Z,1.70
2017-12-22T18:42:48.381Z,1.60
2017-12-22T18:45:14.971Z,1.70
2017-12-22T18:47:41.181Z,1.83
2017-12-22T18:50:07.407Z,1.30
2017-12-22T18:52:33.703Z,1.43
2017-12-22T18:54:59.894Z,1.40
2017-12-22T18:57:26.097Z,1.30
2017-12-22T18:59:52.483Z,1.50
2017-12-22T19:02:18.740Z,1.30
2017-12-22T19:04:44.906Z,1.70
2017-12-22T19:07:11.160Z,1.67
2017-12-22T19:09:37.388Z,1.40
2017-12-22T19:12:03.618Z,1.60
2017-12-22T19:14:30.246Z,1.87
2017-12-22T19:16:56.470Z,1.47
2017-12-22T19:19:22.921Z,1.87
2017-12-22T19:21:49.184Z,1.50
2017-12-22T19:24:15.409Z,1.50
2017-12-22T19:26:41.614Z,1.63
2017-12-22T19:29:07.916Z,1.80
2017-12-22T19:31:34.138Z,1.77
2017-12-22T19:34:00.377Z,1.47
2017-12-22T19:36:26.632Z,1.50
2017-12-22T19:38:52.813Z,1.70
2017-12-22T19:41:19.032Z,1.20
2017-12-22T19:43:45.312Z,1.80
2017-12-22T19:46:11.512Z,1.60
2017-12-22T19:48:37.779Z,2.00
2017-12-22T19:51:04.398Z,1.23
2017-12-22T19:53:30.682Z,1.50
2017-12-22T19:55:56.859Z,1.60
2017-12-22T19:58:23.158Z,1.70
2017-12-22T20:00:49.520Z,1.80
2017-12-22T20:03:26.913Z,1.80
2017-12-22T20:05:53.183Z,2.00
2017-12-22T20:08:19.410Z,1.50
2017-12-22T20:10:45.750Z,1.70
2017-12-22T20:13:11.978Z,1.67
2017-12-22T20:15:38.154Z,2.10
2017-12-22T20:18:04.693Z,2.00
2017-12-22T20:20:30.935Z,2.20
2017-12-22T20:22:57.230Z,2.00
2017-12-22T20:25:23.814Z,2.00
2017-12-22T20:27:50.047Z,1.90
2017-12-22T20:30:16.241Z,1.50
2017-12-22T20:32:42.543Z,2.40
2017-12-22T20:35:09.091Z,2.03
2017-12-22T20:37:35.332Z,2.37
2017-12-22T20:40:01.573Z,2.13
2017-12-22T20:42:27.946Z,1.70
2017-12-22T20:44:54.146Z,2.00
2017-12-22T20:47:20.502Z,1.80
2017-12-22T20:49:46.755Z,2.03
2017-12-22T20:52:12.999Z,2.10
2017-12-22T20:54:39.308Z,2.10
2017-12-22T20:57:05.532Z,1.70
2017-12-22T20:59:31.778Z,2.10
2017-12-22T21:01:58.101Z,2.10
2017-12-22T21:04:24.361Z,2.00
2017-12-22T21:06:50.546Z,2.00
2017-12-22T21:09:16.786Z,2.30
2017-12-22T21:11:42.982Z,2.10
2017-12-22T21:14:09.178Z,1.97
2017-12-22T21:16:35.454Z,1.80
2017-12-22T21:19:01.679Z,1.70
2017-12-22T21:21:27.926Z,1.70
2017-12-22T21:23:54.237Z,1.77
2017-12-22T21:26:20.507Z,1.77
2017-12-22T21:28:46.739Z,1.73
2017-12-22T21:31:13.368Z,1.67
2017-12-22T21:33:39.595Z,2.40
2017-12-22T21:36:05.836Z,2.00
2017-12-22T21:38:32.118Z,2.33
2017-12-22T21:40:58.298Z,2.00
2017-12-22T21:43:24.509Z,2.17
2017-12-22T21:45:51.446Z,1.70
2017-12-22T21:48:17.670Z,1.70
2017-12-22T21:50:44.208Z,1.83
2017-12-22T21:53:10.475Z,1.83
2017-12-22T21:55:36.969Z,1.83
2017-12-22T21:58:03.153Z,2.33
2017-12-22T22:00:29.434Z,1.97
2017-12-22T22:02:56.057Z,1.63
2017-12-22T22:05:22.242Z,1.90
2017-12-22T22:07:48.574Z,1.90
2017-12-22T22:10:14.826Z,1.90
2017-12-22T22:12:41.012Z,1.80
2017-12-22T22:15:07.283Z,1.77
2017-12-22T22:17:33.543Z,1.43
2017-12-22T22:19:59.772Z,1.60
2017-12-22T22:22:26.035Z,1.60
2017-12-22T22:24:52.304Z,1.77
2017-12-22T22:27:18.489Z,1.73
2017-12-22T22:29:44.751Z,1.73
2017-12-22T22:32:11.019Z,1.77
2017-12-22T22:34:37.246Z,1.60
2017-12-22T22:37:03.906Z,1.40
2017-12-22T22:39:30.173Z,1.70
2017-12-22T22:41:56.415Z,1.30
2017-12-22T22:44:22.654Z,1.87
2017-12-22T22:46:48.897Z,1.80
2017-12-22T22:49:15.129Z,1.90
2017-12-22T22:51:41.754Z,1.50
2017-12-22T22:54:07.996Z,1.57
2017-12-22T22:56:34.522Z,2.03
2017-12-22T22:59:00.762Z,1.87
2017-12-22T23:01:26.966Z,1.80
2017-12-22T23:03:53.229Z,1.30
2017-12-22T23:06:19.502Z,1.80
2017-12-22T23:08:45.748Z,1.90
2017-12-22T23:11:11.949Z,1.50
2017-12-22T23:13:38.246Z,2.00
2017-12-22T23:16:04.440Z,1.80
2017-12-22T23:18:30.747Z,1.63
2017-12-22T23:20:57.071Z,1.30
2017-12-22T23:23:23.296Z,2.12
2017-12-22T23:25:49.881Z,1.80
2017-12-22T23:28:16.574Z,1.40
2017-12-22T23:30:42.848Z,1.87
2017-12-22T23:33:09.370Z,1.73
2017-12-22T23:35:35.655Z,1.83
2017-12-22T23:38:02.885Z,1.57
2017-12-22T23:40:29.396Z,1.60
2017-12-22T23:42:55.650Z,1.90
2017-12-22T23:45:21.851Z,2.00
2017-12-22T23:47:48.157Z,1.73
2017-12-22T23:50:14.434Z,1.87
2017-12-22T23:52:40.623Z,1.83
2017-12-22T23:55:06.829Z,2.00
2017-12-22T23:57:33.069Z,2.00
2017-12-22T23:59:59.283Z,1.90
